Time;durP1;ratioP1;P1;durP2;ratioP2;P2;SDS_P1;SDS_P2;PMS_P1;PMS_P2;Temp;Humidity;BMP_temperature;BMP_pressure;BME280_temperature;BME280_humidity;BME280_pressure;Samples;Min_cycle;Max_cycle;Signal;HPM_P1;HPM_P2
2023/03/05 00:00:04;;;;;;;3.97;0.90;;;4.60;36.80;;;;;;26141532;22;20014;-41
2023/03/05 00:10:06;;;;;;;10.35;1.75;;;4.50;37.30;;;;;;26115276;22;20068;-42
2023/03/05 00:20:08;;;;;;;6.95;1.52;;;4.50;37.30;;;;;;26152733;22;20038;-41
2023/03/05 00:30:10;;;;;;;3.65;1.55;;;4.40;39.10;;;;;;26152285;22;20037;-42
2023/03/05 00:40:11;;;;;;;4.88;1.83;;;4.30;40.80;;;;;;26133765;22;20014;-41
2023/03/05 00:50:12;;;;;;;2.17;0.63;;;4.20;45.40;;;;;;26142587;22;20003;-42
2023/03/05 01:00:15;;;;;;;4.00;1.67;;;4.30;59.60;;;;;;26147835;22;20019;-42
2023/03/05 01:10:16;;;;;;;5.57;1.77;;;4.30;77.20;;;;;;26144147;22;20021;-41
2023/03/05 01:20:19;;;;;;;8.02;1.92;;;4.40;77.80;;;;;;26145364;22;20330;-42
2023/03/05 01:30:20;;;;;;;1.88;0.80;;;4.30;68.50;;;;;;26145203;22;20015;-42
2023/03/05 01:40:27;;;;;;;2.75;1.05;;;4.20;62.50;;;;;;26135144;22;20025;-42
2023/03/05 01:50:28;;;;;;;1.70;0.97;;;4.20;61.20;;;;;;26143987;22;20155;-42
2023/03/05 02:01:02;;;;;;;1.50;0.75;;;4.10;61.40;;;;;;26155076;22;20403;-41
2023/03/05 02:11:04;;;;;;;3.08;1.50;;;4.10;64.60;;;;;;26049146;22;20014;-42
2023/03/05 02:21:11;;;;;;;1.90;0.90;;;4.10;43.00;;;;;;26133032;22;20022;-41
2023/03/05 02:31:16;;;;;;;1.23;0.40;;;3.90;40.70;;;;;;26145776;22;20033;-41
2023/03/05 02:41:17;;;;;;;1.42;0.65;;;3.90;44.80;;;;;;26149795;22;20128;-42
2023/03/05 02:51:19;;;;;;;2.05;0.95;;;3.90;53.30;;;;;;26153057;22;20022;-42
2023/03/05 03:01:20;;;;;;;1.15;0.50;;;3.90;72.60;;;;;;26145184;22;20019;-41
2023/03/05 03:11:21;;;;;;;2.40;0.93;;;3.90;76.90;;;;;;26151227;22;20261;-42
2023/03/05 03:21:24;;;;;;;0.95;0.35;;;3.80;77.40;;;;;;26153934;22;20027;-41
2023/03/05 03:41:40;;;;;;;2.10;0.50;;;3.60;91.30;;;;;;26127747;22;20019;-80
2023/03/05 03:51:42;;;;;;;2.13;1.17;;;3.60;93.90;;;;;;25975599;22;20030;-80
2023/03/05 04:01:44;;;;;;;0.85;0.20;;;3.60;99.90;;;;;;25949587;22;20004;-80
2023/03/05 04:11:45;;;;;;;4.68;1.20;;;3.60;99.40;;;;;;25959685;22;20004;-80
2023/03/05 04:21:47;;;;;;;1.60;0.68;;;3.70;99.90;;;;;;25982635;22;20019;-80
2023/03/05 04:31:49;;;;;;;0.85;0.43;;;3.80;99.90;;;;;;25974187;22;20019;-80
2023/03/05 04:41:51;;;;;;;2.25;0.30;;;3.80;96.80;;;;;;25862449;22;20020;-80
2023/03/05 04:51:53;;;;;;;1.27;0.50;;;3.70;86.70;;;;;;25831935;22;20004;-80
2023/03/05 05:01:55;;;;;;;1.48;0.38;;;3.50;87.00;;;;;;25846762;22;20010;-80
2023/03/05 05:11:58;;;;;;;3.20;0.93;;;3.50;92.70;;;;;;25888315;22;20020;-80
2023/03/05 05:22:01;;;;;;;0.80;0.30;;;3.60;96.60;;;;;;25805208;22;20000;-80
2023/03/05 05:32:03;;;;;;;2.20;0.93;;;3.60;98.50;;;;;;25823263;22;20012;-80
2023/03/05 05:42:06;;;;;;;2.90;0.85;;;3.60;99.90;;;;;;25837589;22;20051;-80
2023/03/05 05:52:09;;;;;;;1.45;0.93;;;3.50;99.90;;;;;;25872041;22;20020;-80
2023/03/05 06:02:11;;;;;;;1.15;0.20;;;3.50;99.90;;;;;;25738113;22;20406;-80
2023/03/05 06:12:12;;;;;;;0.63;0.10;;;3.50;99.90;;;;;;25755271;22;20028;-80
2023/03/05 06:22:15;;;;;;;0.85;0.47;;;3.40;99.90;;;;;;25839660;22;20020;-80
2023/03/05 06:32:17;;;;;;;0.30;0.10;;;3.40;99.90;;;;;;25847966;23;20008;-81
2023/03/05 06:42:19;;;;;;;0.57;0.20;;;3.30;99.90;;;;;;25662096;23;20396;-43
2023/03/05 06:52:20;;;;;;;1.85;0.70;;;3.20;99.90;;;;;;25638909;23;20016;-43
2023/03/05 07:02:21;;;;;;;1.85;0.50;;;3.30;99.90;;;;;;25634881;23;20020;-43
2023/03/05 07:12:23;;;;;;;3.15;1.02;;;3.40;99.90;;;;;;25640845;23;20023;-43
2023/03/05 07:22:24;;;;;;;0.43;0.20;;;3.60;99.90;;;;;;25639320;23;20038;-42
2023/03/05 07:32:25;;;;;;;0.68;0.38;;;3.70;99.90;;;;;;25644270;23;20017;-43
2023/03/05 07:42:26;;;;;;;1.75;0.73;;;3.50;99.90;;;;;;25654352;23;20029;-42
2023/03/05 07:52:27;;;;;;;10.80;1.48;;;3.50;99.90;;;;;;25651752;23;20026;-43
2023/03/05 08:02:28;;;;;;;0.65;0.32;;;3.50;99.90;;;;;;25644461;23;20027;-43
2023/03/05 08:12:29;;;;;;;1.55;0.40;;;3.70;99.90;;;;;;25646954;23;20013;-43
2023/03/05 08:22:33;;;;;;;2.05;0.47;;;4.00;99.90;;;;;;25655588;23;20357;-43
2023/03/05 08:32:35;;;;;;;1.33;0.60;;;4.10;99.90;;;;;;25658199;23;20019;-43
2023/03/05 08:42:36;;;;;;;1.00;0.45;;;4.30;99.90;;;;;;25645716;23;20031;-43
2023/03/05 08:52:37;;;;;;;4.30;1.48;;;4.50;99.90;;;;;;25653935;23;20020;-43
2023/03/05 09:02:38;;;;;;;1.25;0.38;;;4.70;99.90;;;;;;25649408;23;20183;-43
2023/03/05 09:12:40;;;;;;;1.42;0.52;;;4.70;99.90;;;;;;25657352;23;20021;-43
2023/03/05 09:22:42;;;;;;;1.52;0.60;;;4.70;99.90;;;;;;25645583;23;20065;-43
2023/03/05 09:32:43;;;;;;;0.77;0.28;;;4.70;99.90;;;;;;25649402;23;20440;-43
2023/03/05 09:43:02;;;;;;;0.63;0.20;;;5.00;99.90;;;;;;25646280;23;20031;-43
2023/03/05 09:53:34;;;;;;;0.57;0.40;;;5.20;96.70;;;;;;25653478;23;20021;-43
2023/03/05 10:03:44;;;;;;;0.68;0.30;;;5.40;67.00;;;;;;25619136;23;20016;-43
2023/03/05 10:13:45;;;;;;;0.25;0.20;;;6.00;35.40;;;;;;25617680;23;20020;-43
2023/03/05 10:23:49;;;;;;;0.88;0.30;;;6.30;23.00;;;;;;25613098;23;20036;-43
2023/03/05 10:33:53;;;;;;;1.75;0.50;;;6.40;14.30;;;;;;25651816;23;20504;-43
2023/03/05 10:43:59;;;;;;;0.95;0.45;;;6.40;9.30;;;;;;25637261;23;20087;-43
2023/03/05 10:54:30;;;;;;;1.98;0.40;;;6.30;7.60;;;;;;25639494;23;20447;-43
2023/03/05 11:04:36;;;;;;;1.17;0.35;;;6.10;7.20;;;;;;25627551;23;20016;-43
2023/03/05 11:15:05;;;;;;;2.53;0.95;;;6.30;4.50;;;;;;25640924;23;20822;-43
2023/03/05 11:25:09;;;;;;;1.05;0.52;;;6.50;2.10;;;;;;25645480;23;20061;-43
2023/03/05 11:35:33;;;;;;;3.00;1.33;;;6.70;3.80;;;;;;25653133;23;20422;-43
2023/03/05 11:45:34;;;;;;;1.10;0.30;;;6.90;1.00;;;;;;25646669;23;20551;-43
2023/03/05 11:55:47;;;;;;;1.35;0.45;;;7.00;1.00;;;;;;25638663;23;20346;-43
2023/03/05 12:06:14;;;;;;;1.23;0.20;;;7.00;1.00;;;;;;25611607;23;20023;-44
2023/03/05 12:16:39;;;;;;;0.60;0.20;;;7.60;1.00;;;;;;25635628;23;20163;-43
2023/03/05 12:26:54;;;;;;;1.98;0.70;;;7.40;1.00;;;;;;25647088;23;20019;-43
2023/03/05 12:36:56;;;;;;;0.75;0.20;;;7.30;1.00;;;;;;25647826;23;20086;-43
2023/03/05 12:47:23;;;;;;;0.73;0.30;;;7.50;1.00;;;;;;25601968;23;20020;-44
2023/03/05 12:57:26;;;;;;;0.20;0.10;;;8.10;1.00;;;;;;25636331;23;20027;-44
2023/03/05 13:07:27;;;;;;;1.90;0.45;;;8.20;1.00;;;;;;25630209;23;20013;-43
2023/03/05 13:17:32;;;;;;;0.85;0.30;;;7.90;1.00;;;;;;25643556;23;20017;-43
2023/03/05 13:27:34;;;;;;;5.78;0.98;;;7.50;1.00;;;;;;25628415;23;21584;-43
2023/03/05 13:37:36;;;;;;;1.30;0.40;;;7.10;1.00;;;;;;25637228;23;20028;-43
2023/03/05 13:47:37;;;;;;;0.38;0.20;;;6.80;1.00;;;;;;25620867;23;20054;-43
2023/03/05 13:57:51;;;;;;;1.00;0.85;;;7.10;1.00;;;;;;25635842;23;20516;-44
2023/03/05 14:07:53;;;;;;;0.90;0.40;;;7.20;1.00;;;;;;25630410;23;20008;-43
2023/03/05 14:18:12;;;;;;;2.05;0.75;;;7.60;1.00;;;;;;25630522;23;20012;-43
2023/03/05 14:28:16;;;;;;;0.17;0.08;;;8.20;1.00;;;;;;25629889;23;20017;-43
2023/03/05 14:38:23;;;;;;;0.85;0.20;;;8.60;1.00;;;;;;25621303;23;20028;-42
2023/03/05 14:48:24;;;;;;;0.13;0.10;;;10.10;1.00;;;;;;25618049;23;20017;-43
2023/03/05 14:58:28;;;;;;;0.90;0.10;;;9.60;1.00;;;;;;25620994;23;20021;-43
2023/03/05 15:08:31;;;;;;;1.42;0.50;;;8.70;1.00;;;;;;25622912;23;20021;-43
2023/03/05 15:18:32;;;;;;;0.40;0.20;;;8.00;1.00;;;;;;25630528;23;20027;-43
2023/03/05 15:28:35;;;;;;;0.63;0.22;;;7.60;1.00;;;;;;25623351;23;20070;-43
2023/03/05 15:38:37;;;;;;;0.75;0.20;;;7.20;1.00;;;;;;25606900;23;20210;-43
2023/03/05 15:48:38;;;;;;;0.43;0.10;;;7.00;1.00;;;;;;25630542;23;20432;-43
2023/03/05 15:58:42;;;;;;;0.65;0.17;;;6.80;1.00;;;;;;25617201;23;20393;-43
2023/03/05 16:08:43;;;;;;;0.68;0.13;;;6.60;1.00;;;;;;25612359;23;20012;-43
2023/03/05 16:18:46;;;;;;;0.35;0.10;;;6.50;1.00;;;;;;25648203;23;20017;-43
2023/03/05 16:28:47;;;;;;;0.55;0.30;;;6.40;1.00;;;;;;25643669;23;20021;-43
2023/03/05 16:38:50;;;;;;;1.42;0.60;;;6.20;1.00;;;;;;25639239;23;20029;-43
2023/03/05 16:48:52;;;;;;;4.28;2.05;;;6.00;1.00;;;;;;25641086;23;20702;-43
2023/03/05 16:58:55;;;;;;;2.00;0.50;;;5.80;1.00;;;;;;25653638;23;20019;-41
2023/03/05 17:08:57;;;;;;;2.45;1.20;;;5.70;1.00;;;;;;25637750;23;20048;-41
2023/03/05 17:18:58;;;;;;;3.60;0.90;;;5.60;1.00;;;;;;25666551;23;20352;-41
2023/03/05 17:28:59;;;;;;;1.23;0.40;;;5.50;1.00;;;;;;25640449;23;20012;-42
2023/03/05 17:39:00;;;;;;;1.13;0.52;;;5.40;1.00;;;;;;25645116;23;20020;-41
2023/03/05 17:49:01;;;;;;;2.15;0.73;;;5.30;1.00;;;;;;25648751;23;20012;-41
2023/03/05 17:59:02;;;;;;;0.68;0.30;;;5.20;1.00;;;;;;25645928;23;20021;-41
2023/03/05 18:09:03;;;;;;;3.53;1.17;;;5.20;1.00;;;;;;25600241;23;20792;-41
2023/03/05 18:19:05;;;;;;;2.35;0.80;;;5.20;1.00;;;;;;25635655;23;20101;-41
2023/03/05 18:29:06;;;;;;;2.47;0.90;;;5.10;1.00;;;;;;25638181;23;20008;-41
2023/03/05 18:39:08;;;;;;;2.55;1.23;;;5.10;1.00;;;;;;25652613;23;20020;-41
2023/03/05 18:49:10;;;;;;;3.88;2.20;;;5.10;1.00;;;;;;25646080;23;20023;-41
2023/03/05 18:59:11;;;;;;;4.03;1.35;;;5.00;1.00;;;;;;25652753;23;20096;-41
2023/03/05 19:09:19;;;;;;;7.07;3.65;;;4.90;1.00;;;;;;25631134;23;20466;-41
2023/03/05 19:19:23;;;;;;;2.75;1.70;;;4.80;1.00;;;;;;25614537;23;20013;-41
2023/03/05 19:29:26;;;;;;;1.23;0.77;;;4.80;1.00;;;;;;25642190;23;20013;-41
2023/03/05 19:39:27;;;;;;;5.22;1.80;;;4.70;1.00;;;;;;25638193;23;20454;-42
2023/03/05 19:49:28;;;;;;;7.25;2.35;;;4.50;1.00;;;;;;25634678;23;20016;-41
2023/03/05 19:59:30;;;;;;;4.15;2.03;;;4.50;1.00;;;;;;25623732;23;20024;-42
2023/03/05 20:09:31;;;;;;;3.45;1.63;;;4.40;1.00;;;;;;25634727;23;20016;-42
2023/03/05 20:19:32;;;;;;;4.93;2.20;;;4.30;1.00;;;;;;25626990;23;20023;-42
2023/03/05 20:29:34;;;;;;;7.60;2.50;;;4.40;1.00;;;;;;25630941;23;20033;-42
2023/03/05 20:39:35;;;;;;;2.10;0.85;;;4.30;1.00;;;;;;25640449;23;20024;-42
2023/03/05 20:49:36;;;;;;;0.43;0.25;;;4.30;1.00;;;;;;25642771;23;20809;-42
2023/03/05 20:59:37;;;;;;;0.65;0.30;;;4.20;1.00;;;;;;25647201;23;20021;-42
2023/03/05 21:09:38;;;;;;;3.17;0.40;;;4.20;1.00;;;;;;25627996;23;20374;-42
2023/03/05 21:19:40;;;;;;;0.50;0.22;;;4.20;1.00;;;;;;25649215;23;20447;-42
2023/03/05 21:29:41;;;;;;;0.30;0.10;;;4.10;1.00;;;;;;25620454;23;20023;-42
2023/03/05 21:39:42;;;;;;;1.15;0.65;;;4.20;1.00;;;;;;25641470;23;20020;-42
2023/03/05 21:49:43;;;;;;;2.38;1.42;;;4.00;1.00;;;;;;25612721;23;20522;-41
2023/03/05 21:59:44;;;;;;;1.63;0.60;;;4.10;6.70;;;;;;25649338;23;20358;-41
2023/03/05 22:09:45;;;;;;;1.02;0.40;;;4.00;8.40;;;;;;25639131;23;20016;-42
2023/03/05 22:19:46;;;;;;;2.78;0.65;;;3.90;11.70;;;;;;25638638;23;20019;-42
2023/03/05 22:29:47;;;;;;;1.33;0.50;;;3.70;10.40;;;;;;25635633;23;20022;-42
2023/03/05 22:39:53;;;;;;;1.75;0.75;;;3.70;12.00;;;;;;25656074;23;20449;-42
2023/03/05 22:49:54;;;;;;;1.13;0.60;;;3.60;14.20;;;;;;25649100;23;20008;-42
2023/03/05 22:59:57;;;;;;;1.60;0.55;;;3.50;14.80;;;;;;25652696;23;20491;-42
2023/03/05 23:10:08;;;;;;;1.17;0.60;;;3.50;19.10;;;;;;25646393;23;20462;-41
2023/03/05 23:20:11;;;;;;;1.13;0.63;;;3.40;20.60;;;;;;25646129;23;20012;-42
2023/03/05 23:30:20;;;;;;;2.75;0.95;;;3.30;21.50;;;;;;25641029;23;20208;-42
2023/03/05 23:40:24;;;;;;;2.20;1.25;;;3.20;26.00;;;;;;25646033;23;20025;-42
2023/03/05 23:50:26;;;;;;;2.53;1.20;;;3.20;30.60;;;;;;25628324;23;20359;-42
